Time;durP1;ratioP1;P1;durP2;ratioP2;P2;SDS_P1;SDS_P2;PMS_P1;PMS_P2;Temp;Humidity;BMP_temperature;BMP_pressure;BME280_temperature;BME280_humidity;BME280_pressure;Samples;Min_cycle;Max_cycle;Signal;HPM_P1;HPM_P2
2021/04/15 00:00:07;;;;;;;12.50;8.17;;;0.80;99.90;;;;;;4977238;28;20432;-77
2021/04/15 00:02:33;;;;;;;10.60;8.70;;;0.80;99.90;;;;;;4976795;28;20492;-77
2021/04/15 00:05:00;;;;;;;15.00;8.80;;;0.80;99.90;;;;;;4977249;28;20424;-77
2021/04/15 00:07:27;;;;;;;13.23;8.90;;;0.80;99.90;;;;;;4977197;28;20484;-75
2021/04/15 00:09:53;;;;;;;11.40;8.70;;;0.80;99.90;;;;;;4977072;28;20485;-75
2021/04/15 00:12:19;;;;;;;10.80;8.87;;;0.80;99.90;;;;;;4976399;28;20843;-85
2021/04/15 00:14:45;;;;;;;10.53;7.90;;;0.70;99.90;;;;;;4976750;28;20931;-85
2021/04/15 00:17:12;;;;;;;13.43;10.00;;;0.70;99.90;;;;;;4976716;28;20969;-85
2021/04/15 00:19:38;;;;;;;13.00;9.57;;;0.70;99.90;;;;;;4977030;28;20481;-85
2021/04/15 00:22:04;;;;;;;11.83;9.00;;;0.70;99.90;;;;;;4976969;28;20444;-84
2021/04/15 00:24:32;;;;;;;13.10;9.17;;;0.70;99.90;;;;;;4976661;28;20416;-84
2021/04/15 00:26:58;;;;;;;13.00;8.60;;;0.60;99.90;;;;;;4976890;28;20453;-84
2021/04/15 00:29:24;;;;;;;10.47;8.13;;;0.70;99.90;;;;;;4976708;28;20471;-84
2021/04/15 00:31:51;;;;;;;10.60;8.93;;;0.70;99.90;;;;;;4977164;28;20452;-84
2021/04/15 00:34:17;;;;;;;13.70;9.67;;;0.70;99.90;;;;;;4976476;28;20953;-84
2021/04/15 00:36:45;;;;;;;12.30;8.67;;;0.70;99.90;;;;;;4976304;28;20436;-85
2021/04/15 00:39:11;;;;;;;9.90;8.30;;;0.70;99.90;;;;;;4976829;28;20456;-85
2021/04/15 00:41:38;;;;;;;12.87;8.70;;;0.60;99.90;;;;;;4976273;28;20968;-84
2021/04/15 00:44:05;;;;;;;11.10;8.57;;;0.60;99.90;;;;;;4976546;28;20460;-84
2021/04/15 00:46:51;;;;;;;11.13;9.53;;;0.50;99.90;;;;;;4976171;28;20424;-84
2021/04/15 00:49:22;;;;;;;10.53;7.50;;;0.40;99.90;;;;;;4976129;28;20998;-84
2021/04/15 00:51:52;;;;;;;13.00;8.77;;;0.40;99.90;;;;;;4976406;28;20450;-84
2021/04/15 00:54:33;;;;;;;10.37;7.77;;;0.40;99.90;;;;;;4976353;28;20442;-84
2021/04/15 00:57:01;;;;;;;10.53;8.10;;;0.30;99.90;;;;;;4976257;28;20412;-84
2021/04/15 00:59:28;;;;;;;12.10;8.60;;;0.30;99.90;;;;;;4976245;28;20441;-85
2021/04/15 01:01:54;;;;;;;13.40;8.93;;;0.30;99.90;;;;;;4975706;28;20477;-84
2021/04/15 01:04:21;;;;;;;10.03;8.00;;;0.20;99.90;;;;;;4976119;28;20432;-84
2021/04/15 01:06:47;;;;;;;13.43;8.77;;;0.20;99.90;;;;;;4976085;28;20445;-84
2021/04/15 01:09:14;;;;;;;10.77;8.53;;;0.30;99.90;;;;;;4976803;28;20467;-84
2021/04/15 01:11:54;;;;;;;11.10;8.20;;;0.20;99.90;;;;;;4975905;28;20454;-84
2021/04/15 01:14:28;;;;;;;11.20;9.03;;;0.20;99.90;;;;;;4976028;28;20551;-84
2021/04/15 01:16:59;;;;;;;11.60;8.73;;;0.20;99.90;;;;;;4976018;28;20414;-84
2021/04/15 01:20:04;;;;;;;15.77;9.67;;;0.10;99.90;;;;;;4975880;28;20435;-84
2021/04/15 01:22:45;;;;;;;13.80;9.00;;;0.10;99.90;;;;;;4970312;28;20460;-85
2021/04/15 01:25:23;;;;;;;14.33;9.30;;;0.00;99.90;;;;;;4974826;28;20441;-84
2021/04/15 01:27:51;;;;;;;13.40;10.20;;;0.00;99.90;;;;;;4975404;28;20862;-84
2021/04/15 01:30:25;;;;;;;14.30;9.57;;;0.00;99.90;;;;;;4975350;28;20513;-84
2021/04/15 01:33:05;;;;;;;17.17;10.97;;;0.00;99.90;;;;;;4975610;28;20474;-84
2021/04/15 01:35:36;;;;;;;12.77;9.07;;;0.00;99.90;;;;;;4975683;28;20488;-84
2021/04/15 01:38:07;;;;;;;14.77;9.30;;;0.10;99.90;;;;;;4975550;28;20426;-84
2021/04/15 01:40:38;;;;;;;10.87;8.37;;;0.10;99.90;;;;;;4975568;28;20429;-83
2021/04/15 01:43:12;;;;;;;12.10;9.17;;;0.00;99.90;;;;;;4975478;28;20419;-83
2021/04/15 01:45:40;;;;;;;14.10;9.73;;;0.00;99.90;;;;;;4975460;28;20528;-78
2021/04/15 01:48:10;;;;;;;14.27;10.20;;;0.00;99.90;;;;;;4975066;28;20434;-78
2021/04/15 01:50:41;;;;;;;15.40;10.17;;;0.00;99.90;;;;;;4975167;28;20470;-78
2021/04/15 01:53:11;;;;;;;13.10;10.37;;;-0.10;99.90;;;;;;4975277;28;20412;-78
2021/04/15 01:55:42;;;;;;;13.93;9.67;;;-0.10;99.90;;;;;;4974845;28;20952;-78
2021/04/15 01:58:12;;;;;;;15.30;10.10;;;0.00;99.90;;;;;;4974911;28;20748;-78
2021/04/15 02:00:42;;;;;;;17.33;11.30;;;0.00;99.90;;;;;;4974642;28;20435;-78
2021/04/15 02:03:14;;;;;;;11.37;9.23;;;0.00;99.90;;;;;;4975123;28;20408;-78
2021/04/15 02:05:43;;;;;;;13.00;10.20;;;0.00;99.90;;;;;;4974779;28;20940;-78
2021/04/15 02:08:13;;;;;;;13.47;9.10;;;0.10;99.90;;;;;;4974987;28;20445;-78
2021/04/15 02:10:43;;;;;;;15.13;9.80;;;0.00;99.90;;;;;;4974815;28;20452;-78
2021/04/15 02:13:11;;;;;;;12.97;9.30;;;0.00;99.90;;;;;;4974872;28;20431;-78
2021/04/15 02:15:45;;;;;;;12.70;9.00;;;0.00;99.90;;;;;;4974659;28;20514;-78
2021/04/15 02:18:17;;;;;;;10.53;7.73;;;0.10;99.90;;;;;;4974730;28;20486;-78
2021/04/15 02:20:48;;;;;;;10.13;7.83;;;0.00;99.90;;;;;;4975290;28;20433;-78
2021/04/15 02:23:20;;;;;;;9.87;7.80;;;0.00;99.90;;;;;;4974493;28;20789;-78
2021/04/15 02:25:50;;;;;;;11.20;8.00;;;0.00;99.90;;;;;;4974768;28;20385;-78
2021/04/15 02:28:20;;;;;;;13.80;7.67;;;-0.10;99.90;;;;;;4974742;28;20440;-78
2021/04/15 02:30:50;;;;;;;14.50;8.60;;;-0.10;99.90;;;;;;4974504;28;20493;-78
2021/04/15 02:33:22;;;;;;;10.47;8.77;;;-0.10;99.90;;;;;;4974386;28;20932;-78
2021/04/15 02:35:50;;;;;;;11.10;8.20;;;-0.20;99.90;;;;;;4974286;28;20912;-78
2021/04/15 02:38:21;;;;;;;12.67;9.00;;;-0.20;99.90;;;;;;4974361;28;20446;-77
2021/04/15 02:40:51;;;;;;;11.87;8.23;;;-0.30;99.90;;;;;;4974465;28;20412;-78
2021/04/15 02:43:25;;;;;;;11.33;8.07;;;-0.20;99.90;;;;;;4974535;28;20430;-78
2021/04/15 02:45:56;;;;;;;18.70;8.07;;;-0.30;99.90;;;;;;4974580;28;20420;-78
2021/04/15 02:48:27;;;;;;;10.80;7.90;;;-0.30;99.90;;;;;;4974536;28;20428;-78
2021/04/15 02:50:57;;;;;;;12.60;8.93;;;-0.20;99.90;;;;;;4974089;28;20494;-77
2021/04/15 02:53:27;;;;;;;10.67;8.27;;;-0.30;99.90;;;;;;4974492;28;20412;-77
2021/04/15 02:55:58;;;;;;;11.10;8.03;;;-0.30;99.90;;;;;;4974150;28;20861;-78
2021/04/15 02:58:29;;;;;;;12.73;8.80;;;-0.30;99.90;;;;;;4974153;28;20437;-77
2021/04/15 03:00:58;;;;;;;11.13;7.47;;;-0.30;99.90;;;;;;4974102;28;20456;-78
2021/04/15 03:03:29;;;;;;;10.63;7.93;;;-0.30;99.90;;;;;;4974449;28;20437;-77
2021/04/15 03:06:02;;;;;;;11.20;7.93;;;-0.40;99.90;;;;;;4974385;28;20408;-78
2021/04/15 03:08:28;;;;;;;12.07;7.47;;;-0.40;99.90;;;;;;4974892;28;20453;-78
2021/04/15 03:10:58;;;;;;;12.07;8.57;;;-0.50;99.90;;;;;;4973909;28;20982;-77
2021/04/15 03:13:30;;;;;;;11.93;8.67;;;-0.50;99.90;;;;;;4974044;28;20924;-78
2021/04/15 03:16:01;;;;;;;14.53;9.60;;;-0.50;99.90;;;;;;4974314;28;20408;-78
2021/04/15 03:18:35;;;;;;;12.37;8.17;;;-0.60;99.90;;;;;;4973919;28;20938;-77
2021/04/15 03:21:06;;;;;;;11.70;8.70;;;-0.50;99.90;;;;;;4974709;28;20440;-78
2021/04/15 03:23:39;;;;;;;15.53;8.90;;;-0.50;99.90;;;;;;4975204;28;20436;-78
2021/04/15 03:26:15;;;;;;;16.00;8.10;;;-0.50;99.90;;;;;;4974226;28;20432;-78
2021/04/15 03:28:47;;;;;;;12.93;8.67;;;-0.50;99.90;;;;;;4973903;28;20443;-78
2021/04/15 03:31:22;;;;;;;15.13;8.73;;;-0.50;99.90;;;;;;4974163;28;20465;-78
2021/04/15 03:33:54;;;;;;;10.10;8.10;;;-0.50;99.90;;;;;;4974159;28;20416;-78
2021/04/15 03:36:25;;;;;;;12.63;9.33;;;-0.50;99.90;;;;;;4974160;28;20421;-83
2021/04/15 03:38:56;;;;;;;13.30;9.63;;;-0.60;99.90;;;;;;4974693;28;20448;-83
2021/04/15 03:41:24;;;;;;;14.73;10.27;;;-0.60;99.90;;;;;;4974070;28;20526;-83
2021/04/15 03:43:59;;;;;;;12.60;9.20;;;-0.60;99.90;;;;;;4974054;28;20435;-78
2021/04/15 03:46:31;;;;;;;16.37;10.77;;;-0.60;99.90;;;;;;4973761;28;20892;-78
2021/04/15 03:49:01;;;;;;;14.40;8.47;;;-0.60;99.90;;;;;;4977273;28;20384;-78
2021/04/15 03:51:36;;;;;;;15.77;10.40;;;-0.60;99.90;;;;;;4977126;28;20475;-78
2021/04/15 03:54:05;;;;;;;13.00;8.63;;;-0.60;99.90;;;;;;4977498;28;20440;-78
2021/04/15 03:56:36;;;;;;;16.07;9.73;;;-0.60;99.90;;;;;;4977458;28;20434;-78
2021/04/15 03:59:08;;;;;;;16.20;9.77;;;-0.60;99.90;;;;;;4977416;28;20487;-78
2021/04/15 04:01:40;;;;;;;15.90;10.13;;;-0.50;99.90;;;;;;4976964;28;20463;-77
2021/04/15 04:04:16;;;;;;;12.60;9.40;;;-0.60;99.90;;;;;;4977283;28;20427;-78
2021/04/15 04:06:44;;;;;;;10.60;8.20;;;-0.50;99.90;;;;;;4976938;28;20857;-78
2021/04/15 04:09:16;;;;;;;10.07;7.93;;;-0.60;99.90;;;;;;4976781;28;20495;-78
2021/04/15 04:11:46;;;;;;;15.07;9.70;;;-0.60;99.90;;;;;;4977062;28;20560;-78
2021/04/15 04:14:17;;;;;;;10.60;7.90;;;-0.60;99.90;;;;;;4977072;28;20449;-78
2021/04/15 04:16:47;;;;;;;11.50;8.77;;;-0.60;99.90;;;;;;4977080;28;20462;-78
2021/04/15 04:19:20;;;;;;;14.33;10.13;;;-0.60;99.90;;;;;;4977019;28;20412;-78
2021/04/15 04:21:54;;;;;;;11.47;8.87;;;-0.60;99.90;;;;;;4976875;28;20473;-78
2021/04/15 04:24:27;;;;;;;12.80;8.30;;;-0.60;99.90;;;;;;4976660;28;20457;-78
2021/04/15 04:26:58;;;;;;;12.03;8.40;;;-0.60;99.90;;;;;;4977272;28;20450;-77
2021/04/15 04:29:36;;;;;;;11.83;8.23;;;-0.70;99.90;;;;;;4976795;28;20473;-78
2021/04/15 04:32:10;;;;;;;13.17;9.10;;;-0.70;99.90;;;;;;4976745;28;20473;-78
2021/04/15 04:34:37;;;;;;;11.83;8.50;;;-0.70;99.90;;;;;;4976800;28;20456;-78
2021/04/15 04:37:05;;;;;;;15.50;8.57;;;-0.80;99.90;;;;;;4976667;28;20428;-78
2021/04/15 04:39:32;;;;;;;10.70;8.13;;;-0.80;99.90;;;;;;4976346;28;20479;-78
2021/04/15 04:42:05;;;;;;;12.90;8.27;;;-0.80;99.90;;;;;;4976506;28;20473;-78
2021/04/15 04:44:39;;;;;;;11.50;8.23;;;-0.80;99.90;;;;;;4976529;28;20412;-77
2021/04/15 04:47:15;;;;;;;10.57;8.20;;;-0.80;99.90;;;;;;4976495;28;20799;-78
2021/04/15 04:49:44;;;;;;;9.10;7.67;;;-0.80;99.90;;;;;;4976369;28;20440;-78
2021/04/15 04:52:18;;;;;;;12.77;8.27;;;-0.80;99.90;;;;;;4976294;28;20469;-78
2021/04/15 04:54:45;;;;;;;11.50;7.67;;;-0.80;99.90;;;;;;4976094;28;20433;-77
2021/04/15 04:57:16;;;;;;;9.10;6.63;;;-0.80;99.90;;;;;;4976148;28;20912;-78
2021/04/15 04:59:47;;;;;;;8.10;6.47;;;-0.70;99.90;;;;;;4975254;28;20528;-77
2021/04/15 05:02:15;;;;;;;14.53;8.13;;;-0.60;99.90;;;;;;4975723;28;20543;-78
2021/04/15 05:04:43;;;;;;;8.73;7.80;;;-0.70;99.90;;;;;;4976153;28;20502;-78
2021/04/15 05:07:17;;;;;;;9.47;6.70;;;-0.60;99.90;;;;;;4975947;28;20803;-77
2021/04/15 05:09:45;;;;;;;8.07;6.57;;;-0.60;99.90;;;;;;4976037;28;20465;-77
2021/04/15 05:12:15;;;;;;;12.23;7.13;;;-0.50;99.90;;;;;;4975559;28;20484;-78
2021/04/15 05:14:42;;;;;;;12.13;8.33;;;-0.50;99.90;;;;;;4976092;28;20427;-78
2021/04/15 05:17:20;;;;;;;14.80;8.20;;;-0.40;99.90;;;;;;4975956;28;20504;-77
2021/04/15 05:19:47;;;;;;;7.63;6.60;;;-0.40;99.90;;;;;;4975891;28;20483;-77
2021/04/15 05:22:23;;;;;;;7.10;5.97;;;-0.30;99.90;;;;;;4975518;28;20520;-77
2021/04/15 05:24:51;;;;;;;10.03;6.50;;;-0.20;99.90;;;;;;4975811;28;20420;-77
2021/04/15 05:27:21;;;;;;;8.70;6.53;;;-0.20;99.90;;;;;;4975748;28;20424;-77
2021/04/15 05:29:48;;;;;;;9.30;6.60;;;-0.10;99.90;;;;;;4975590;28;20460;-77
2021/04/15 05:32:18;;;;;;;9.07;5.83;;;-0.10;99.90;;;;;;4975280;28;20444;-77
2021/04/15 05:34:47;;;;;;;10.17;7.10;;;0.00;99.90;;;;;;4975560;28;20457;-77
2021/04/15 05:37:16;;;;;;;9.27;6.23;;;0.00;99.90;;;;;;4975543;28;20457;-77
2021/04/15 05:39:43;;;;;;;7.70;6.57;;;0.10;99.90;;;;;;4975472;28;20428;-77
2021/04/15 05:42:18;;;;;;;7.00;6.30;;;0.20;99.90;;;;;;4975008;28;21011;-77
2021/04/15 05:44:47;;;;;;;11.67;6.73;;;0.30;99.90;;;;;;4975478;28;20441;-77
2021/04/15 05:47:16;;;;;;;9.87;6.50;;;0.30;99.90;;;;;;4975016;28;20457;-77
2021/04/15 05:49:48;;;;;;;10.20;6.40;;;0.40;99.90;;;;;;4975336;28;20477;-77
2021/04/15 05:52:24;;;;;;;10.50;6.90;;;0.60;99.90;;;;;;4975342;28;20824;-77
2021/04/15 05:54:52;;;;;;;7.47;5.73;;;0.80;99.90;;;;;;4975258;28;20412;-77
2021/04/15 05:57:26;;;;;;;13.07;7.23;;;1.00;99.90;;;;;;4974978;28;20843;-77
2021/04/15 05:59:58;;;;;;;8.17;6.33;;;1.20;99.90;;;;;;4975213;28;20796;-78
2021/04/15 06:02:38;;;;;;;8.70;6.63;;;1.40;99.90;;;;;;4974656;28;20489;-78
2021/04/15 06:05:14;;;;;;;10.07;7.03;;;1.60;99.90;;;;;;4974782;28;20917;-78
2021/04/15 06:07:42;;;;;;;8.97;7.07;;;1.70;99.90;;;;;;4974729;28;20928;-78
2021/04/15 06:10:10;;;;;;;9.10;6.63;;;1.80;99.90;;;;;;4974619;28;20492;-78
2021/04/15 06:12:45;;;;;;;16.23;7.87;;;1.80;99.90;;;;;;4974874;28;20473;-78
2021/04/15 06:15:16;;;;;;;8.33;6.93;;;1.90;99.90;;;;;;4974957;28;20429;-78
2021/04/15 06:17:47;;;;;;;8.37;6.97;;;1.90;99.90;;;;;;4975274;28;20420;-78
2021/04/15 06:20:22;;;;;;;12.27;6.43;;;2.00;99.90;;;;;;4974883;28;20422;-78
2021/04/15 06:22:50;;;;;;;8.67;6.63;;;2.10;99.90;;;;;;4974528;28;20957;-82
2021/04/15 06:25:20;;;;;;;6.67;5.83;;;2.40;99.90;;;;;;4974502;28;20453;-82
2021/04/15 06:27:48;;;;;;;6.77;5.90;;;3.10;99.90;;;;;;4974430;28;20953;-82
2021/04/15 06:30:19;;;;;;;9.93;6.30;;;4.10;99.90;;;;;;4974633;28;20576;-82
2021/04/15 06:32:50;;;;;;;9.90;6.40;;;5.20;99.90;;;;;;4974688;28;20510;-82
2021/04/15 06:35:21;;;;;;;7.33;5.57;;;5.70;99.90;;;;;;4974426;28;20452;-82
2021/04/15 06:37:51;;;;;;;7.97;6.10;;;6.00;99.90;;;;;;4974600;28;20441;-81
2021/04/15 06:40:59;;;;;;;11.57;6.27;;;6.60;99.90;;;;;;4974581;28;20809;-82
2021/04/15 06:43:50;;;;;;;5.63;4.93;;;7.20;99.90;;;;;;4945830;28;20461;-81
2021/04/15 06:46:29;;;;;;;8.70;4.60;;;8.10;95.40;;;;;;4942450;28;20952;-81
2021/04/15 06:49:38;;;;;;;5.07;4.57;;;8.90;92.20;;;;;;4974255;28;20457;-81
2021/04/15 06:52:14;;;;;;;6.57;4.80;;;10.00;85.60;;;;;;4967184;28;20481;-81
2021/04/15 06:54:57;;;;;;;5.43;4.50;;;10.70;80.30;;;;;;4974518;28;20471;-81
2021/04/15 06:57:46;;;;;;;9.53;4.90;;;11.00;75.50;;;;;;4974432;28;20429;-77
2021/04/15 07:00:26;;;;;;;4.60;4.20;;;10.70;74.60;;;;;;4974224;28;20453;-77
2021/04/15 07:03:07;;;;;;;6.17;4.67;;;10.90;74.50;;;;;;4974735;28;20469;-77
2021/04/15 07:05:38;;;;;;;5.53;4.77;;;11.50;71.60;;;;;;4974056;28;20438;-77
2021/04/15 07:08:11;;;;;;;4.63;4.23;;;12.40;65.10;;;;;;4974123;28;20976;-77
2021/04/15 07:10:55;;;;;;;8.23;5.10;;;12.90;63.60;;;;;;4974310;28;20477;-77
2021/04/15 07:13:56;;;;;;;4.47;3.57;;;14.20;60.60;;;;;;4974338;28;20437;-77
2021/04/15 07:17:05;;;;;;;4.20;3.73;;;15.60;52.80;;;;;;4972000;28;20457;-77
2021/04/15 07:20:03;;;;;;;4.17;3.70;;;17.10;46.90;;;;;;4914536;29;20446;-77
2021/04/15 07:22:52;;;;;;;4.13;3.73;;;17.80;45.40;;;;;;4975199;28;20456;-77
2021/04/15 07:25:50;;;;;;;4.63;4.23;;;18.20;43.80;;;;;;4978286;28;20456;-77
2021/04/15 07:28:37;;;;;;;4.70;3.70;;;18.30;42.10;;;;;;4977829;28;20449;-77
2021/04/15 07:31:29;;;;;;;3.10;2.90;;;18.60;41.20;;;;;;4977269;28;20580;-77
2021/04/15 07:34:27;;;;;;;5.40;3.67;;;19.10;40.40;;;;;;4977469;28;20602;-77
2021/04/15 07:37:19;;;;;;;3.57;3.37;;;18.70;39.20;;;;;;4977665;28;20486;-77
2021/04/15 07:40:10;;;;;;;3.67;3.37;;;18.60;39.50;;;;;;4977799;28;20421;-77
2021/04/15 07:42:57;;;;;;;4.70;3.50;;;18.40;39.40;;;;;;4977707;28;20495;-78
2021/04/15 07:45:30;;;;;;;3.33;3.13;;;18.20;39.40;;;;;;4977677;28;20413;-77
2021/04/15 07:48:29;;;;;;;4.17;3.87;;;18.80;37.70;;;;;;4977632;28;20433;-77
2021/04/15 07:51:34;;;;;;;6.70;4.40;;;19.40;36.90;;;;;;4977396;28;20485;-77
2021/04/15 07:54:41;;;;;;;4.77;3.70;;;19.90;37.50;;;;;;4942802;28;20457;-77
2021/04/15 07:57:34;;;;;;;4.83;4.43;;;20.50;34.80;;;;;;4977479;28;20443;-78
2021/04/15 08:00:24;;;;;;;3.88;3.58;;;20.70;35.80;;;;;;4977097;28;20198;-77
2021/04/15 08:03:12;;;;;;;4.15;3.85;;;21.50;34.60;;;;;;4977107;28;20292;-78
2021/04/15 08:06:13;;;;;;;3.42;3.22;;;21.70;33.40;;;;;;4977069;28;20642;-78
2021/04/15 08:09:15;;;;;;;3.80;3.58;;;22.20;32.70;;;;;;4976985;28;20672;-78
2021/04/15 08:11:48;;;;;;;3.78;3.47;;;22.60;32.80;;;;;;4971836;28;20221;-77
2021/04/15 08:14:47;;;;;;;4.22;3.92;;;22.00;32.70;;;;;;4977213;28;20193;-78
2021/04/15 08:17:26;;;;;;;3.90;3.70;;;23.00;31.00;;;;;;4977114;28;20257;-78
2021/04/15 08:20:08;;;;;;;4.35;4.05;;;22.40;30.70;;;;;;4977332;28;20200;-77
2021/04/15 08:23:26;;;;;;;3.90;3.60;;;22.80;30.50;;;;;;4977028;28;20237;-78
2021/04/15 08:26:10;;;;;;;3.80;3.58;;;22.50;30.50;;;;;;4976946;28;20209;-77
2021/04/15 08:28:47;;;;;;;5.63;3.95;;;21.50;31.60;;;;;;4976935;28;20248;-83
2021/04/15 08:31:21;;;;;;;4.00;3.70;;;20.80;31.70;;;;;;4976721;28;20237;-83
2021/04/15 08:34:05;;;;;;;3.47;3.28;;;20.20;32.70;;;;;;4976360;28;20645;-83
2021/04/15 08:36:44;;;;;;;3.85;3.35;;;19.60;33.60;;;;;;4976777;28;20567;-83
2021/04/15 08:39:24;;;;;;;3.55;3.35;;;19.10;33.70;;;;;;4976425;28;20189;-83
2021/04/15 08:42:02;;;;;;;5.55;3.30;;;19.10;35.10;;;;;;4976524;28;20232;-83
2021/04/15 08:44:41;;;;;;;3.60;3.30;;;19.30;34.90;;;;;;4976580;28;20243;-83
2021/04/15 08:47:20;;;;;;;2.80;2.60;;;20.10;32.90;;;;;;4976343;28;20534;-81
2021/04/15 08:49:58;;;;;;;4.60;3.27;;;20.50;32.10;;;;;;4975984;28;20210;-83
2021/04/15 08:52:35;;;;;;;3.03;2.80;;;19.60;31.20;;;;;;4976435;28;20558;-83
2021/04/15 08:55:21;;;;;;;3.87;3.57;;;18.70;32.80;;;;;;4975831;28;20943;-83
2021/04/15 08:58:02;;;;;;;3.27;3.07;;;18.30;33.30;;;;;;4976871;28;20496;-82
2021/04/15 09:00:34;;;;;;;3.23;3.03;;;17.00;33.50;;;;;;4976106;28;20441;-83
2021/04/15 09:03:15;;;;;;;3.23;3.00;;;15.50;35.60;;;;;;4975975;28;20961;-82
2021/04/15 09:06:04;;;;;;;3.20;2.73;;;15.10;37.90;;;;;;4976218;28;20445;-82
2021/04/15 09:08:38;;;;;;;2.37;2.20;;;16.40;37.10;;;;;;4976194;28;20492;-82
2021/04/15 09:11:12;;;;;;;2.50;2.30;;;17.40;34.90;;;;;;4975918;28;20493;-82
2021/04/15 09:13:44;;;;;;;2.47;2.27;;;16.50;33.30;;;;;;4976661;28;20450;-81
2021/04/15 09:16:32;;;;;;;4.93;3.00;;;14.90;34.90;;;;;;4975963;28;20433;-82
2021/04/15 09:19:06;;;;;;;4.00;2.47;;;13.90;37.70;;;;;;4975964;28;20441;-81
2021/04/15 09:21:46;;;;;;;2.33;2.23;;;14.00;37.20;;;;;;4975888;28;20477;-82
2021/04/15 09:24:28;;;;;;;7.17;2.90;;;14.30;36.40;;;;;;4975883;28;20446;-82
2021/04/15 09:27:23;;;;;;;6.63;2.00;;;14.80;37.10;;;;;;4976067;28;20418;-82
2021/04/15 09:30:17;;;;;;;3.30;2.33;;;14.10;34.70;;;;;;4975374;28;20488;-82
2021/04/15 09:32:56;;;;;;;4.10;3.03;;;12.80;37.30;;;;;;4969951;28;20484;-82
2021/04/15 09:36:02;;;;;;;4.00;2.47;;;11.50;39.20;;;;;;4975601;28;20410;-82
2021/04/15 09:39:03;;;;;;;3.03;2.53;;;10.90;40.40;;;;;;4975527;28;20434;-82
2021/04/15 09:41:51;;;;;;;2.30;2.10;;;10.50;41.70;;;;;;4975177;28;21010;-82
2021/04/15 09:44:35;;;;;;;2.37;2.03;;;10.30;41.60;;;;;;4975388;28;20425;-81
2021/04/15 09:47:11;;;;;;;2.37;2.17;;;10.40;43.00;;;;;;4975315;28;20448;-81
2021/04/15 09:49:50;;;;;;;2.87;2.40;;;11.60;41.60;;;;;;4975348;28;20436;-81
2021/04/15 09:52:38;;;;;;;2.20;2.00;;;13.10;41.30;;;;;;4975262;28;20473;-82
2021/04/15 09:55:17;;;;;;;2.13;1.93;;;13.40;37.70;;;;;;4975319;28;20441;-82
2021/04/15 09:57:50;;;;;;;3.70;2.80;;;12.40;37.60;;;;;;4974962;28;20917;-82
2021/04/15 10:00:21;;;;;;;2.70;2.50;;;12.60;39.60;;;;;;4975755;28;20532;-81
2021/04/15 10:03:06;;;;;;;2.60;2.40;;;13.50;40.60;;;;;;4974918;28;20999;-81
2021/04/15 10:05:52;;;;;;;2.00;1.90;;;14.70;37.90;;;;;;4975196;28;20437;-81
2021/04/15 10:08:28;;;;;;;2.20;1.37;;;15.90;36.90;;;;;;4975054;28;20442;-81
2021/04/15 10:11:02;;;;;;;1.60;1.50;;;16.90;34.50;;;;;;4974671;28;21074;-82
2021/04/15 10:13:56;;;;;;;2.70;1.50;;;17.50;32.60;;;;;;4975033;28;20436;-82
2021/04/15 10:16:29;;;;;;;1.77;1.67;;;17.30;30.70;;;;;;4974994;28;20434;-82
2021/04/15 10:19:47;;;;;;;3.20;2.17;;;16.00;34.10;;;;;;4974673;28;20418;-82
2021/04/15 10:22:27;;;;;;;4.80;2.50;;;14.70;35.50;;;;;;4974832;28;20469;-82
2021/04/15 10:25:00;;;;;;;2.83;2.47;;;13.80;37.50;;;;;;4974873;28;20437;-84
2021/04/15 10:28:09;;;;;;;2.33;2.13;;;13.10;39.40;;;;;;4975131;28;20893;-84
2021/04/15 10:30:55;;;;;;;5.57;3.30;;;12.80;39.20;;;;;;4974774;28;20473;-81
2021/04/15 10:34:03;;;;;;;2.40;2.20;;;12.60;39.50;;;;;;4974739;28;20441;-82
2021/04/15 10:36:55;;;;;;;1.60;1.50;;;12.50;39.30;;;;;;4974720;28;20835;-83
2021/04/15 10:39:47;;;;;;;2.40;2.20;;;12.00;39.30;;;;;;4975072;28;20560;-86
2021/04/15 10:42:55;;;;;;;2.40;2.30;;;11.60;39.20;;;;;;4974705;28;20480;-85
2021/04/15 10:45:42;;;;;;;2.57;2.30;;;11.70;40.30;;;;;;4974688;28;20582;-86
2021/04/15 10:48:34;;;;;;;2.77;2.57;;;13.00;40.50;;;;;;4974730;28;20528;-86
2021/04/15 10:51:06;;;;;;;2.47;2.27;;;15.00;38.20;;;;;;4974311;28;20494;-86
2021/04/15 10:53:44;;;;;;;2.80;2.03;;;15.70;36.20;;;;;;4974835;28;20414;-86
2021/04/15 10:56:29;;;;;;;2.23;2.03;;;15.40;37.20;;;;;;4974656;28;20800;-84
2021/04/15 10:59:07;;;;;;;2.40;2.20;;;14.50;37.40;;;;;;4978469;28;20436;-84
2021/04/15 11:01:37;;;;;;;2.40;2.07;;;13.70;38.80;;;;;;4978315;28;20484;-88
2021/04/15 11:04:22;;;;;;;2.27;2.17;;;13.10;39.00;;;;;;4978969;28;20466;-82
2021/04/15 11:06:52;;;;;;;2.30;2.20;;;12.40;38.20;;;;;;4978798;28;20500;-88
2021/04/15 11:09:31;;;;;;;2.30;2.10;;;11.80;38.80;;;;;;4978852;28;20437;-87
2021/04/15 11:12:01;;;;;;;2.83;1.97;;;11.30;39.20;;;;;;4979003;28;20473;-88
2021/04/15 11:14:33;;;;;;;3.50;2.77;;;10.80;40.20;;;;;;4978927;28;20433;-88
2021/04/15 11:17:00;;;;;;;2.97;2.50;;;10.50;43.10;;;;;;4978577;28;20426;-88
2021/04/15 11:19:30;;;;;;;3.00;2.73;;;10.20;45.30;;;;;;4978769;28;20429;-86
2021/04/15 11:22:10;;;;;;;5.90;3.20;;;10.10;44.80;;;;;;4978310;28;20453;-87
2021/04/15 11:24:39;;;;;;;5.73;2.70;;;9.80;45.30;;;;;;4979333;28;20445;-87
2021/04/15 11:27:06;;;;;;;3.57;3.27;;;9.70;45.30;;;;;;4978509;28;20876;-85
2021/04/15 11:29:40;;;;;;;4.30;2.47;;;9.70;45.50;;;;;;4978257;28;20421;-87
2021/04/15 11:32:25;;;;;;;2.10;2.00;;;9.50;46.30;;;;;;4978105;28;20455;-87
2021/04/15 11:35:11;;;;;;;2.70;2.50;;;9.70;46.00;;;;;;4978173;28;20909;-86
2021/04/15 11:37:38;;;;;;;2.70;2.37;;;9.90;46.00;;;;;;4978176;28;20905;-87
2021/04/15 11:40:22;;;;;;;3.17;2.80;;;9.90;46.00;;;;;;4978114;28;20457;-86
2021/04/15 11:42:49;;;;;;;2.80;2.10;;;10.10;45.30;;;;;;4977999;28;20839;-87
2021/04/15 11:45:28;;;;;;;3.93;2.60;;;10.20;44.40;;;;;;4978155;28;20430;-87
2021/04/15 11:48:17;;;;;;;2.93;2.73;;;10.20;44.30;;;;;;4977979;28;20913;-87
2021/04/15 11:50:45;;;;;;;2.70;2.50;;;10.30;43.70;;;;;;4977906;28;20863;-87
2021/04/15 11:53:27;;;;;;;3.43;2.70;;;10.20;44.40;;;;;;4978769;28;20468;-87
2021/04/15 11:56:12;;;;;;;2.63;2.43;;;10.30;45.40;;;;;;4977869;28;20432;-87
2021/04/15 11:58:39;;;;;;;3.00;2.50;;;10.50;46.30;;;;;;4977939;28;20437;-87
2021/04/15 12:01:05;;;;;;;3.23;1.90;;;10.70;43.70;;;;;;4977534;28;21016;-87
2021/04/15 12:03:34;;;;;;;2.47;2.00;;;10.90;43.90;;;;;;4977517;28;20453;-88
2021/04/15 12:06:06;;;;;;;2.40;2.20;;;11.10;44.10;;;;;;4977804;28;20437;-87
2021/04/15 12:08:34;;;;;;;2.90;2.50;;;11.30;42.90;;;;;;4977205;28;20433;-88
2021/04/15 12:11:06;;;;;;;5.23;2.90;;;11.20;42.30;;;;;;4977969;28;20568;-82
2021/04/15 12:13:36;;;;;;;4.17;2.30;;;10.90;42.40;;;;;;4977848;28;20810;-85
2021/04/15 12:16:11;;;;;;;4.33;2.90;;;10.60;42.60;;;;;;4977776;28;20438;-90
2021/04/15 12:18:42;;;;;;;2.70;2.13;;;10.30;44.10;;;;;;4977937;28;20418;-90
2021/04/15 12:21:16;;;;;;;2.40;2.20;;;10.20;44.10;;;;;;4977814;28;20523;-89
2021/04/15 12:23:49;;;;;;;3.10;2.50;;;9.90;45.00;;;;;;4977977;28;20500;-89
2021/04/15 12:26:21;;;;;;;2.10;2.00;;;9.80;44.40;;;;;;4977432;28;20492;-89
2021/04/15 12:28:56;;;;;;;2.10;1.90;;;9.60;46.30;;;;;;4978017;28;20520;-89
2021/04/15 12:31:26;;;;;;;2.00;1.80;;;9.40;44.30;;;;;;4977444;28;20493;-89
2021/04/15 12:34:08;;;;;;;2.60;2.10;;;9.30;44.00;;;;;;4977584;28;20414;-88
2021/04/15 12:36:38;;;;;;;2.57;2.37;;;9.40;44.30;;;;;;4977215;28;20433;-89
2021/04/15 12:39:09;;;;;;;5.00;2.40;;;9.50;44.10;;;;;;4977759;28;20532;-89
2021/04/15 12:41:37;;;;;;;1.93;1.80;;;9.50;44.30;;;;;;4977140;28;20462;-89
2021/04/15 12:44:09;;;;;;;5.57;2.37;;;9.40;44.10;;;;;;4977544;28;20446;-88
2021/04/15 12:46:37;;;;;;;3.50;1.90;;;9.30;45.50;;;;;;4977164;28;20433;-89
2021/04/15 12:49:07;;;;;;;3.13;2.83;;;9.20;45.60;;;;;;4977486;28;20421;-89
2021/04/15 12:51:37;;;;;;;2.10;2.00;;;9.00;45.50;;;;;;4977091;28;20489;-89
2021/04/15 12:54:08;;;;;;;2.50;2.30;;;8.90;45.00;;;;;;4977210;28;20904;-88
2021/04/15 12:56:38;;;;;;;2.50;2.30;;;8.80;45.00;;;;;;4977185;28;20812;-89
2021/04/15 12:59:05;;;;;;;2.10;1.90;;;8.90;46.30;;;;;;4977111;28;20437;-89
2021/04/15 13:01:33;;;;;;;1.90;1.80;;;9.00;44.80;;;;;;4976613;28;20485;-89
2021/04/15 13:04:15;;;;;;;2.57;1.90;;;9.20;44.20;;;;;;4976819;28;20421;-87
2021/04/15 13:07:10;;;;;;;2.10;2.00;;;9.40;43.60;;;;;;4976758;28;20445;-87
2021/04/15 13:09:39;;;;;;;1.80;1.70;;;9.30;43.90;;;;;;4976457;28;20450;-86
2021/04/15 13:12:34;;;;;;;2.50;1.80;;;9.10;43.00;;;;;;4976077;28;20523;-86
2021/04/15 13:15:03;;;;;;;2.90;1.90;;;8.80;43.90;;;;;;4976221;28;20434;-85
2021/04/15 13:17:50;;;;;;;2.10;1.90;;;8.40;43.50;;;;;;4976390;28;20812;-86
2021/04/15 13:20:40;;;;;;;1.90;1.80;;;8.30;44.50;;;;;;4970853;28;20450;-86
2021/04/15 13:23:32;;;;;;;1.90;1.70;;;8.30;45.20;;;;;;4976515;28;20437;-87
2021/04/15 13:26:22;;;;;;;1.83;1.73;;;8.40;46.00;;;;;;4976195;28;20466;-86
2021/04/15 13:29:20;;;;;;;2.50;2.00;;;8.70;44.30;;;;;;4976222;28;20430;-86
2021/04/15 13:31:50;;;;;;;2.07;1.87;;;9.10;43.50;;;;;;4976009;28;20493;-86